Time;durP1;ratioP1;P1;durP2;ratioP2;P2;SDS_P1;SDS_P2;PMS_P1;PMS_P2;Temp;Humidity;BMP_temperature;BMP_pressure;BME280_temperature;BME280_humidity;BME280_pressure;Samples;Min_cycle;Max_cycle;Signal;HPM_P1;HPM_P2
2021/09/05 00:01:58;;;;;;;12.40;8.25;;;435.30;2355.20;;;;;;6308493;22;20328;-69
2021/09/05 00:04:24;;;;;;;10.80;8.48;;;435.40;2355.20;;;;;;6308728;22;20011;-69
2021/09/05 00:06:50;;;;;;;10.55;8.13;;;435.40;2355.20;;;;;;6307456;22;20326;-68
2021/09/05 00:09:16;;;;;;;10.13;7.93;;;435.40;2355.20;;;;;;6307582;22;19999;-69
2021/09/05 00:11:42;;;;;;;11.30;8.27;;;435.50;2355.20;;;;;;6307764;22;19999;-70
2021/09/05 00:14:08;;;;;;;11.05;7.90;;;435.60;2355.20;;;;;;6279945;22;20086;-69
2021/09/05 00:16:34;;;;;;;10.88;8.15;;;435.60;2355.20;;;;;;6308145;22;20009;-69
2021/09/05 00:19:00;;;;;;;11.70;8.23;;;435.70;2355.20;;;;;;6307311;22;20058;-69
2021/09/05 00:21:26;;;;;;;11.40;8.00;;;435.80;2355.20;;;;;;6307448;22;20101;-69
2021/09/05 00:23:52;;;;;;;10.02;7.85;;;435.80;2355.20;;;;;;6307218;22;20007;-70
2021/09/05 00:26:19;;;;;;;11.23;7.97;;;435.90;2355.20;;;;;;6307685;22;20082;-69
2021/09/05 00:28:44;;;;;;;11.20;7.45;;;435.80;2355.20;;;;;;6308434;22;20010;-70
2021/09/05 00:31:10;;;;;;;12.05;8.15;;;436.00;2355.20;;;;;;6308152;22;20000;-69
2021/09/05 00:33:36;;;;;;;12.60;8.18;;;436.00;2355.20;;;;;;6306777;22;20442;-70
2021/09/05 00:36:02;;;;;;;11.65;8.35;;;436.00;2355.20;;;;;;6308135;22;20678;-69
2021/09/05 00:38:28;;;;;;;11.10;8.02;;;436.10;2355.20;;;;;;6308295;22;20022;-70
2021/09/05 00:40:54;;;;;;;12.60;7.95;;;436.10;2355.20;;;;;;6308418;22;20007;-69
2021/09/05 00:43:19;;;;;;;12.30;8.48;;;436.00;2355.20;;;;;;6308145;22;20543;-70
2021/09/05 00:45:45;;;;;;;12.40;8.13;;;436.10;2355.20;;;;;;6305737;22;20003;-70
2021/09/05 00:48:11;;;;;;;14.82;8.32;;;436.10;2355.20;;;;;;6305212;22;20137;-69
2021/09/05 00:50:37;;;;;;;12.18;8.43;;;460.80;2380.80;;;;;;6307077;22;20425;-70
2021/09/05 00:53:04;;;;;;;13.15;8.27;;;460.80;2380.80;;;;;;6307087;22;20073;-69
2021/09/05 00:55:35;;;;;;;13.45;8.68;;;460.80;2380.80;;;;;;6307474;22;20070;-69
2021/09/05 00:58:01;;;;;;;10.38;7.60;;;460.80;2380.80;;;;;;6280896;22;20082;-70
2021/09/05 01:00:26;;;;;;;13.07;8.02;;;460.90;2380.80;;;;;;6279340;22;20037;-69
2021/09/05 01:02:52;;;;;;;12.52;8.45;;;461.00;2380.80;;;;;;6307454;22;20379;-70
2021/09/05 01:05:18;;;;;;;13.20;8.68;;;461.00;2380.80;;;;;;6306673;22;19999;-70
2021/09/05 01:07:44;;;;;;;10.60;8.43;;;461.10;2380.80;;;;;;6307023;22;20010;-69
2021/09/05 01:10:12;;;;;;;11.38;8.02;;;461.10;2380.80;;;;;;6307345;22;20023;-68
2021/09/05 01:12:39;;;;;;;12.50;8.50;;;461.10;2380.80;;;;;;6279862;22;20029;-70
2021/09/05 01:15:06;;;;;;;12.60;8.68;;;461.00;2380.80;;;;;;6307361;22;20006;-68
2021/09/05 01:17:39;;;;;;;11.20;8.43;;;461.10;2380.80;;;;;;6307464;22;20311;-69
2021/09/05 01:20:07;;;;;;;15.25;8.68;;;461.10;2380.80;;;;;;6279685;22;20078;-68
2021/09/05 01:22:33;;;;;;;12.50;9.32;;;461.10;2380.80;;;;;;6306935;22;20007;-68
2021/09/05 01:24:59;;;;;;;10.73;8.05;;;461.10;2380.80;;;;;;6306900;22;20010;-69
2021/09/05 01:27:25;;;;;;;10.55;7.68;;;461.10;2380.80;;;;;;6306810;22;19999;-69
2021/09/05 01:29:51;;;;;;;11.98;8.00;;;461.00;2380.80;;;;;;6280462;22;20003;-69
2021/09/05 01:32:18;;;;;;;12.65;8.93;;;460.80;2380.80;;;;;;6307739;22;20317;-68
2021/09/05 01:34:43;;;;;;;13.00;8.75;;;436.10;2355.20;;;;;;6307579;22;20441;-68
2021/09/05 01:37:09;;;;;;;13.07;8.85;;;435.90;2355.20;;;;;;6308024;22;20045;-69
2021/09/05 01:39:35;;;;;;;12.30;8.80;;;436.00;2355.20;;;;;;6308388;22;20003;-68
2021/09/05 01:42:01;;;;;;;10.32;8.35;;;436.10;2355.20;;;;;;6308126;22;20078;-68
2021/09/05 01:44:26;;;;;;;13.00;8.52;;;436.10;2355.20;;;;;;6307555;22;20007;-68
2021/09/05 01:46:53;;;;;;;10.57;8.35;;;436.10;2355.20;;;;;;6307462;22;19999;-68
2021/09/05 01:49:19;;;;;;;11.80;8.65;;;436.10;2355.20;;;;;;6308048;22;20030;-69
2021/09/05 01:51:45;;;;;;;11.20;8.35;;;460.80;2380.80;;;;;;6307709;22;20334;-69
2021/09/05 01:54:10;;;;;;;10.80;8.13;;;460.80;2380.80;;;;;;6305724;22;20504;-69
2021/09/05 01:56:36;;;;;;;13.15;8.70;;;460.90;2380.80;;;;;;6307962;22;19999;-68
2021/09/05 01:59:05;;;;;;;12.27;9.00;;;460.80;2380.80;;;;;;6308786;22;20117;-68
2021/09/05 02:01:32;;;;;;;13.63;8.60;;;436.10;2355.20;;;;;;6310107;22;20006;-68
2021/09/05 02:03:57;;;;;;;12.43;8.45;;;436.00;2355.20;;;;;;6309639;22;20021;-68
2021/09/05 02:06:26;;;;;;;13.80;9.27;;;436.10;2355.20;;;;;;6310329;22;20376;-68
2021/09/05 02:08:52;;;;;;;13.65;9.63;;;460.80;2380.80;;;;;;6309823;22;20000;-68
2021/09/05 02:11:18;;;;;;;14.35;9.45;;;460.90;2380.80;;;;;;6310102;22;20026;-69
2021/09/05 02:13:43;;;;;;;13.40;10.10;;;460.90;2380.80;;;;;;6309900;22;20430;-69
2021/09/05 02:16:09;;;;;;;13.50;9.38;;;435.70;2355.20;;;;;;6309551;22;20001;-68
2021/09/05 02:18:35;;;;;;;12.75;9.75;;;460.80;2380.80;;;;;;6309648;22;20003;-69
2021/09/05 02:21:00;;;;;;;11.68;9.38;;;460.80;2380.80;;;;;;6310089;22;20023;-69
2021/09/05 02:23:26;;;;;;;13.50;9.82;;;436.10;2355.20;;;;;;6282382;22;20422;-69
2021/09/05 02:25:52;;;;;;;12.80;9.30;;;436.00;2355.20;;;;;;6309905;22;19999;-68
2021/09/05 02:28:18;;;;;;;13.38;9.75;;;436.00;2355.20;;;;;;6309986;22;20397;-68
2021/09/05 02:30:43;;;;;;;12.60;9.05;;;436.00;2355.20;;;;;;6281699;22;20027;-68
2021/09/05 02:33:09;;;;;;;13.18;9.48;;;435.80;2355.20;;;;;;6308901;22;20007;-68
2021/09/05 02:35:35;;;;;;;14.38;9.63;;;435.80;2355.20;;;;;;6308917;22;20007;-68
2021/09/05 02:38:01;;;;;;;13.38;9.20;;;435.80;2355.20;;;;;;6310141;22;20006;-69
2021/09/05 02:40:27;;;;;;;11.52;9.02;;;435.90;2355.20;;;;;;6309739;22;20007;-68
2021/09/05 02:42:53;;;;;;;16.00;9.30;;;435.80;2355.20;;;;;;6308590;22;20011;-68
2021/09/05 02:45:18;;;;;;;12.63;9.00;;;435.80;2355.20;;;;;;6308931;22;20489;-69
2021/09/05 02:47:44;;;;;;;13.25;8.98;;;435.80;2355.20;;;;;;6309272;22;20000;-68
2021/09/05 02:50:10;;;;;;;13.27;9.45;;;435.80;2355.20;;;;;;6309676;22;20019;-69
2021/09/05 02:52:35;;;;;;;14.73;9.30;;;435.80;2355.20;;;;;;6309671;22;20086;-68
2021/09/05 02:55:02;;;;;;;15.82;9.35;;;435.70;2355.20;;;;;;6309246;22;20003;-68
2021/09/05 02:57:27;;;;;;;13.65;8.65;;;435.70;2355.20;;;;;;6309171;22;20000;-68
2021/09/05 02:59:53;;;;;;;14.65;9.32;;;435.70;2355.20;;;;;;6309262;22;20006;-68
2021/09/05 03:02:19;;;;;;;13.88;9.75;;;435.70;2355.20;;;;;;6281818;22;20003;-68
2021/09/05 03:04:45;;;;;;;14.65;9.77;;;435.60;2355.20;;;;;;6309540;22;20010;-68
2021/09/05 03:07:10;;;;;;;11.43;9.30;;;435.50;2355.20;;;;;;6309654;22;20019;-68
2021/09/05 03:09:36;;;;;;;15.50;9.68;;;435.60;2355.20;;;;;;6309001;22;20071;-68
2021/09/05 03:12:02;;;;;;;13.38;9.38;;;435.60;2355.20;;;;;;6309147;22;20006;-68
2021/09/05 03:14:28;;;;;;;13.07;9.55;;;435.60;2355.20;;;;;;6309094;22;20010;-68
2021/09/05 03:16:53;;;;;;;11.32;9.18;;;435.70;2355.20;;;;;;6308673;22;20456;-68
2021/09/05 03:19:19;;;;;;;14.38;9.63;;;435.70;2355.20;;;;;;6308637;22;20303;-68
2021/09/05 03:21:46;;;;;;;12.68;9.55;;;435.50;2355.20;;;;;;6281645;22;20096;-69
2021/09/05 03:24:13;;;;;;;11.48;9.13;;;435.50;2355.20;;;;;;6309197;22;20007;-69
2021/09/05 03:26:38;;;;;;;12.82;8.88;;;435.60;2355.20;;;;;;6309482;22;20019;-68
2021/09/05 03:29:05;;;;;;;11.75;9.07;;;435.60;2355.20;;;;;;6309124;22;20026;-68
2021/09/05 03:31:31;;;;;;;12.88;9.82;;;435.70;2355.20;;;;;;6308858;22;19991;-68
2021/09/05 03:33:56;;;;;;;13.70;9.25;;;435.70;2355.20;;;;;;6281019;22;20062;-69
2021/09/05 03:36:22;;;;;;;13.32;9.40;;;435.80;2355.20;;;;;;6307772;22;20314;-69
2021/09/05 03:38:48;;;;;;;13.25;9.65;;;435.80;2355.20;;;;;;6307454;22;20017;-68
2021/09/05 03:41:13;;;;;;;11.25;9.27;;;435.80;2355.20;;;;;;6307701;22;20002;-68
2021/09/05 03:43:39;;;;;;;12.13;9.13;;;436.00;2355.20;;;;;;6278856;22;20019;-70
2021/09/05 03:46:05;;;;;;;13.82;9.25;;;436.00;2355.20;;;;;;6306180;22;20367;-71
2021/09/05 03:48:32;;;;;;;12.57;9.52;;;436.10;2355.20;;;;;;6307664;22;20000;-70
2021/09/05 03:50:58;;;;;;;12.75;9.50;;;436.00;2355.20;;;;;;6307664;22;20003;-71
2021/09/05 03:53:26;;;;;;;13.80;9.45;;;436.10;2355.20;;;;;;6307359;22;20070;-71
2021/09/05 03:55:52;;;;;;;13.75;9.70;;;460.80;2380.80;;;;;;6307496;22;19999;-71
2021/09/05 03:58:18;;;;;;;16.05;10.32;;;436.00;2355.20;;;;;;6279930;22;20003;-70
2021/09/05 04:00:43;;;;;;;14.93;9.90;;;436.10;2355.20;;;;;;6307274;22;20006;-71
2021/09/05 04:03:09;;;;;;;14.98;10.18;;;460.80;2380.80;;;;;;6307578;22;20090;-71
2021/09/05 04:05:35;;;;;;;13.20;10.30;;;460.80;2380.80;;;;;;6307162;22;20410;-71
2021/09/05 04:10:46;;;;;;;14.43;10.27;;;460.90;2380.80;;;;;;6182889;23;20020;-71
2021/09/05 04:13:14;;;;;;;16.23;10.63;;;461.00;2380.80;;;;;;6182964;23;20448;-71
2021/09/05 04:15:40;;;;;;;14.50;10.90;;;461.00;2380.80;;;;;;6182757;23;20072;-70
2021/09/05 04:18:06;;;;;;;14.95;11.02;;;461.00;2380.80;;;;;;6182776;23;20005;-70
2021/09/05 04:20:32;;;;;;;12.43;10.77;;;461.00;2380.80;;;;;;6182103;23;20001;-71
2021/09/05 04:22:57;;;;;;;15.45;11.70;;;461.00;2380.80;;;;;;6182398;23;20013;-70
2021/09/05 04:25:23;;;;;;;15.93;12.02;;;461.00;2380.80;;;;;;6157888;23;20079;-70
2021/09/05 04:27:49;;;;;;;14.05;11.77;;;461.00;2380.80;;;;;;6183064;23;20009;-70
2021/09/05 04:30:14;;;;;;;15.30;11.73;;;461.00;2380.80;;;;;;6182468;23;20528;-70
2021/09/05 04:32:41;;;;;;;14.57;10.77;;;461.10;2380.80;;;;;;6182896;23;20085;-71
2021/09/05 04:35:07;;;;;;;15.35;11.57;;;461.10;2380.80;;;;;;6115707;23;1586258;-70
2021/09/05 04:37:33;;;;;;;14.73;12.05;;;461.10;2380.80;;;;;;6183810;23;20450;-71
2021/09/05 04:39:59;;;;;;;15.13;12.05;;;461.10;2380.80;;;;;;6183882;23;20076;-71
2021/09/05 04:42:25;;;;;;;18.33;12.60;;;461.10;2380.80;;;;;;6183840;23;20455;-70
2021/09/05 04:44:52;;;;;;;13.73;11.73;;;461.10;2380.80;;;;;;6183868;23;20040;-71
2021/09/05 04:47:19;;;;;;;16.27;12.48;;;461.10;2380.80;;;;;;6217824;22;20000;-70
2021/09/05 04:49:45;;;;;;;15.88;11.65;;;461.20;2380.80;;;;;;6308583;22;20019;-69
2021/09/05 04:52:11;;;;;;;14.13;11.82;;;461.20;2380.80;;;;;;6308419;22;20479;-70
2021/09/05 04:54:36;;;;;;;14.02;11.73;;;461.30;2380.80;;;;;;6308672;22;20030;-71
2021/09/05 04:57:03;;;;;;;14.38;11.65;;;461.30;2380.80;;;;;;6308307;22;19999;-70
2021/09/05 04:59:29;;;;;;;16.67;11.73;;;461.50;2380.80;;;;;;6308653;22;19991;-69
2021/09/05 05:01:55;;;;;;;14.20;10.63;;;461.40;2380.80;;;;;;6309158;22;20010;-69
2021/09/05 05:04:21;;;;;;;14.45;11.73;;;461.50;2380.80;;;;;;6309087;22;20007;-69
2021/09/05 05:06:47;;;;;;;16.52;12.90;;;461.30;2380.80;;;;;;6308585;22;20167;-68
2021/09/05 05:09:14;;;;;;;16.33;13.32;;;461.20;2380.80;;;;;;6307750;22;20026;-69
2021/09/05 05:11:41;;;;;;;15.23;11.90;;;461.30;2380.80;;;;;;6279341;22;20025;-69
2021/09/05 05:14:07;;;;;;;13.35;10.65;;;461.30;2380.80;;;;;;6307529;22;20011;-69
2021/09/05 05:16:33;;;;;;;15.52;10.82;;;461.40;2380.80;;;;;;6307052;22;19999;-68
2021/09/05 05:18:59;;;;;;;12.77;10.98;;;461.40;2380.80;;;;;;6307362;22;19999;-68
2021/09/05 05:21:27;;;;;;;13.20;11.00;;;461.40;2380.80;;;;;;6307250;22;20003;-68
2021/09/05 05:23:54;;;;;;;13.95;10.52;;;461.40;2380.80;;;;;;6307536;22;20007;-68
2021/09/05 05:26:20;;;;;;;16.23;10.70;;;461.50;2380.80;;;;;;6308062;22;20034;-68
2021/09/05 05:28:45;;;;;;;13.27;10.00;;;461.60;2380.80;;;;;;6307234;22;20004;-69
2021/09/05 05:31:11;;;;;;;12.00;10.23;;;461.60;2380.80;;;;;;6306781;22;20317;-68
2021/09/05 05:33:37;;;;;;;16.95;10.15;;;461.60;2380.80;;;;;;6308702;22;20042;-68
2021/09/05 05:36:03;;;;;;;13.50;10.15;;;461.60;2380.80;;;;;;6308638;22;20490;-68
2021/09/05 05:38:29;;;;;;;13.32;10.40;;;461.60;2380.80;;;;;;6309317;22;20003;-68
2021/09/05 05:40:55;;;;;;;13.38;10.45;;;461.70;2380.80;;;;;;6309577;22;20000;-69
2021/09/05 05:43:20;;;;;;;12.88;9.73;;;461.70;2380.80;;;;;;6309700;22;20018;-68
2021/09/05 05:45:46;;;;;;;12.38;9.88;;;461.70;2380.80;;;;;;6310177;22;19999;-68
2021/09/05 05:48:12;;;;;;;12.52;10.25;;;486.40;2380.80;;;;;;6309289;22;20000;-69
2021/09/05 05:50:38;;;;;;;12.45;10.00;;;486.40;2380.80;;;;;;6282334;22;20003;-69
2021/09/05 05:53:04;;;;;;;14.55;9.88;;;486.50;2380.80;;;;;;6309683;22;20018;-69
2021/09/05 05:55:30;;;;;;;12.50;9.20;;;486.70;2380.80;;;;;;6281839;22;19999;-69
2021/09/05 05:57:56;;;;;;;11.05;9.13;;;487.00;2380.80;;;;;;6282468;22;20008;-69
2021/09/05 06:00:26;;;;;;;10.77;9.15;;;487.20;2380.80;;;;;;6309891;22;19995;-69
2021/09/05 06:02:53;;;;;;;12.27;9.32;;;512.10;2380.80;;;;;;6282633;22;20011;-69
2021/09/05 06:05:20;;;;;;;11.25;9.10;;;512.40;2380.80;;;;;;6310253;22;20027;-69
2021/09/05 06:07:45;;;;;;;12.40;8.90;;;512.70;2380.80;;;;;;6309786;22;20343;-69
2021/09/05 06:10:11;;;;;;;12.93;8.75;;;512.80;2380.80;;;;;;6308492;22;19996;-68
2021/09/05 06:12:37;;;;;;;11.77;9.07;;;512.90;2380.80;;;;;;6308276;22;20337;-67
2021/09/05 06:15:03;;;;;;;14.50;8.77;;;537.70;2406.40;;;;;;6308605;22;20074;-66
2021/09/05 06:17:29;;;;;;;14.32;9.00;;;537.80;2406.40;;;;;;6307815;22;20011;-68
2021/09/05 06:19:55;;;;;;;10.52;8.23;;;537.90;2406.40;;;;;;6307401;22;20295;-68
2021/09/05 06:22:20;;;;;;;12.18;8.80;;;538.10;2406.40;;;;;;6307564;22;20003;-67
2021/09/05 06:24:46;;;;;;;10.55;8.95;;;538.20;2406.40;;;;;;6308668;22;20417;-67
2021/09/05 06:27:12;;;;;;;13.60;8.85;;;538.40;2406.40;;;;;;6308800;22;19999;-67
2021/09/05 06:29:38;;;;;;;12.15;8.75;;;538.50;2406.40;;;;;;6308122;22;20338;-67
2021/09/05 06:32:04;;;;;;;13.90;8.98;;;538.50;2406.40;;;;;;6280814;22;20027;-67
2021/09/05 06:34:29;;;;;;;12.07;8.85;;;563.20;2432.00;;;;;;6309254;22;20015;-67
2021/09/05 06:36:55;;;;;;;13.90;8.90;;;563.30;2432.00;;;;;;6309226;22;20027;-67
2021/09/05 06:39:21;;;;;;;11.88;8.55;;;563.40;2432.00;;;;;;6309623;22;20049;-68
2021/09/05 06:41:47;;;;;;;12.68;8.95;;;563.50;2432.00;;;;;;6308912;22;20003;-69
2021/09/05 06:44:12;;;;;;;13.93;8.80;;;563.60;2432.00;;;;;;6280920;22;20046;-70
2021/09/05 06:46:38;;;;;;;11.80;9.15;;;563.70;2406.40;;;;;;6281349;22;19999;-68
2021/09/05 06:49:04;;;;;;;11.45;8.45;;;563.90;2406.40;;;;;;6309301;22;20094;-70
2021/09/05 06:51:29;;;;;;;11.77;8.57;;;564.00;2355.20;;;;;;6308883;22;20078;-68
2021/09/05 06:53:55;;;;;;;11.15;9.25;;;564.00;2355.20;;;;;;6282057;22;20332;-68
2021/09/05 06:56:21;;;;;;;10.50;8.43;;;564.10;2355.20;;;;;;6309476;22;20010;-68
2021/09/05 06:58:47;;;;;;;10.65;8.05;;;588.80;2304.00;;;;;;6281973;22;20429;-68
2021/09/05 07:01:13;;;;;;;10.07;8.23;;;588.90;2304.00;;;;;;6308772;22;20003;-68
2021/09/05 07:03:38;;;;;;;11.20;7.80;;;589.00;2329.60;;;;;;6309046;22;20011;-68
2021/09/05 07:06:05;;;;;;;10.98;7.90;;;589.30;2278.40;;;;;;6309436;22;20002;-68
2021/09/05 07:08:31;;;;;;;10.82;7.85;;;589.50;2252.80;;;;;;6308623;22;20003;-67
2021/09/05 07:10:56;;;;;;;11.65;7.43;;;589.60;2227.20;;;;;;6309446;22;20079;-69
2021/09/05 07:13:22;;;;;;;11.60;7.78;;;589.60;2201.60;;;;;;6308946;22;20302;-68
2021/09/05 07:15:51;;;;;;;10.20;7.70;;;614.40;2201.60;;;;;;6281099;22;20003;-69
2021/09/05 07:18:17;;;;;;;10.45;8.07;;;614.40;2227.20;;;;;;6281878;22;20030;-68
2021/09/05 07:20:42;;;;;;;10.23;7.82;;;614.50;2227.20;;;;;;6309045;22;20417;-69
2021/09/05 07:23:08;;;;;;;11.48;7.45;;;614.60;2227.20;;;;;;6308714;22;20078;-70
2021/09/05 07:25:34;;;;;;;11.73;8.32;;;614.70;2227.20;;;;;;6309036;22;19999;-69
2021/09/05 07:27:59;;;;;;;12.65;7.88;;;614.80;2227.20;;;;;;6309326;22;20006;-69
2021/09/05 07:30:25;;;;;;;9.48;7.75;;;614.90;2201.60;;;;;;6308537;22;20000;-68
2021/09/05 07:32:51;;;;;;;12.85;8.20;;;615.00;2201.60;;;;;;6308435;22;19999;-68
2021/09/05 07:35:16;;;;;;;12.57;8.73;;;615.20;2176.00;;;;;;6308598;22;20307;-67
2021/09/05 07:37:46;;;;;;;11.82;8.13;;;640.00;2150.40;;;;;;6308877;22;20066;-68
2021/09/05 07:40:14;;;;;;;12.93;7.63;;;640.20;2099.20;;;;;;6281116;22;20003;-67
2021/09/05 07:42:40;;;;;;;10.77;7.30;;;640.50;2048.00;;;;;;6308216;22;20364;-68
2021/09/05 07:45:06;;;;;;;10.65;7.72;;;640.80;1996.80;;;;;;6305935;22;20484;-68
2021/09/05 07:47:32;;;;;;;11.73;8.18;;;665.60;2022.40;;;;;;6305850;22;20022;-68
2021/09/05 07:49:58;;;;;;;13.73;8.98;;;665.80;1945.60;;;;;;6306319;22;20011;-67
2021/09/05 07:52:24;;;;;;;16.35;9.55;;;666.10;1920.00;;;;;;6305324;22;20508;-68
2021/09/05 07:54:50;;;;;;;14.65;8.73;;;666.50;1894.40;;;;;;6306085;22;20027;-67
2021/09/05 07:57:15;;;;;;;12.32;7.88;;;691.20;1843.20;;;;;;6305958;22;19999;-68
2021/09/05 07:59:41;;;;;;;12.18;6.97;;;691.50;1792.00;;;;;;6305283;22;20006;-67
2021/09/05 08:02:07;;;;;;;9.70;7.30;;;691.70;1766.40;;;;;;6278956;22;20073;-72
2021/09/05 08:04:32;;;;;;;10.80;6.93;;;691.80;1766.40;;;;;;6305104;22;20038;-68
2021/09/05 08:06:58;;;;;;;9.52;6.80;;;691.90;1740.80;;;;;;6305225;22;20414;-72
2021/09/05 08:09:24;;;;;;;10.95;6.53;;;691.90;1740.80;;;;;;6305317;22;20003;-72
2021/09/05 08:11:50;;;;;;;9.68;6.72;;;692.10;1766.40;;;;;;6306051;22;20019;-70
2021/09/05 08:14:16;;;;;;;7.00;5.97;;;717.00;1792.00;;;;;;6305459;22;20022;-70
2021/09/05 08:16:41;;;;;;;8.57;6.10;;;717.40;1689.60;;;;;;6304926;22;20000;-68
2021/09/05 08:19:07;;;;;;;8.85;5.43;;;717.40;1612.80;;;;;;6305924;22;20014;-67
2021/09/05 08:21:33;;;;;;;8.43;5.22;;;717.60;1612.80;;;;;;6276538;22;20413;-68
2021/09/05 08:23:59;;;;;;;6.95;4.70;;;717.70;1587.20;;;;;;6305879;22;20034;-70
2021/09/05 08:26:25;;;;;;;7.78;5.03;;;742.40;1561.60;;;;;;6304953;22;20637;-69
2021/09/05 08:28:52;;;;;;;7.13;4.75;;;742.60;1510.40;;;;;;6278397;22;20010;-67
2021/09/05 08:31:18;;;;;;;6.88;4.72;;;742.70;1510.40;;;;;;6306139;22;20010;-67
2021/09/05 08:33:44;;;;;;;6.45;4.78;;;742.80;1484.80;;;;;;6275529;22;20830;-68
2021/09/05 08:36:11;;;;;;;8.18;5.57;;;742.80;1510.40;;;;;;6304860;22;19999;-68
2021/09/05 08:38:37;;;;;;;6.13;4.80;;;743.00;1484.80;;;;;;6304574;22;20465;-68
2021/09/05 08:41:03;;;;;;;7.85;4.72;;;768.10;1459.20;;;;;;6277931;22;20003;-68
2021/09/05 08:43:28;;;;;;;7.15;4.80;;;768.40;1408.00;;;;;;6303652;22;20011;-69
2021/09/05 08:45:55;;;;;;;6.07;4.70;;;768.50;1382.40;;;;;;6306009;22;20076;-66
2021/09/05 08:48:22;;;;;;;8.10;5.50;;;768.50;1382.40;;;;;;6277669;22;20362;-67
2021/09/05 08:50:50;;;;;;;7.72;4.70;;;768.70;1382.40;;;;;;6274793;22;20002;-66
2021/09/05 08:53:17;;;;;;;7.75;4.90;;;768.90;1331.20;;;;;;6278454;22;20007;-70
2021/09/05 08:55:45;;;;;;;8.05;4.90;;;793.90;1356.80;;;;;;6304356;22;20051;-70
2021/09/05 08:58:11;;;;;;;10.20;4.68;;;793.90;1305.60;;;;;;6306359;22;20074;-67
2021/09/05 09:00:37;;;;;;;7.90;4.50;;;793.90;1331.20;;;;;;6304482;22;20003;-73
2021/09/05 09:03:03;;;;;;;5.70;3.92;;;794.00;1331.20;;;;;;6305043;22;20440;-68
2021/09/05 09:05:37;;;;;;;6.57;4.25;;;768.90;1305.60;;;;;;6304142;22;20034;-70
2021/09/05 09:08:04;;;;;;;6.73;4.10;;;794.20;1280.00;;;;;;6294936;22;19999;-67
2021/09/05 09:10:30;;;;;;;6.10;4.53;;;819.20;1254.40;;;;;;6304475;22;20236;-71
2021/09/05 09:12:56;;;;;;;5.28;4.32;;;794.40;1305.60;;;;;;6278464;22;20362;-69
2021/09/05 09:15:29;;;;;;;5.25;4.53;;;819.30;1280.00;;;;;;6305680;22;20003;-69
2021/09/05 09:18:00;;;;;;;7.15;4.90;;;819.30;1228.80;;;;;;6305422;22;20010;-71
2021/09/05 09:20:44;;;;;;;7.57;4.78;;;819.40;1228.80;;;;;;6303966;22;20006;-69
2021/09/05 09:23:18;;;;;;;8.48;6.93;;;819.30;1254.40;;;;;;6305468;22;20015;-72
2021/09/05 09:26:07;;;;;;;6.82;5.05;;;819.80;1152.00;;;;;;6304153;22;20644;-72
2021/09/05 09:28:40;;;;;;;8.70;4.53;;;845.60;1152.00;;;;;;6304697;22;20006;-67
2021/09/05 09:31:13;;;;;;;7.35;4.20;;;896.30;1075.20;;;;;;6305730;22;19995;-67
2021/09/05 09:33:40;;;;;;;6.93;4.10;;;922.10;1049.60;;;;;;6275918;22;20015;-68
2021/09/05 09:36:07;;;;;;;4.72;3.60;;;947.70;921.60;;;;;;6305213;22;20109;-72
2021/09/05 09:38:33;;;;;;;6.82;3.60;;;973.10;998.40;;;;;;6277235;22;20003;-71
2021/09/05 09:41:08;;;;;;;4.68;3.50;;;973.10;870.40;;;;;;6305319;22;20053;-71
2021/09/05 09:43:47;;;;;;;5.43;3.63;;;973.40;844.80;;;;;;6304512;22;20011;-71
2021/09/05 09:46:15;;;;;;;3.78;3.30;;;998.80;819.20;;;;;;6306145;22;20011;-69
2021/09/05 09:48:46;;;;;;;7.30;3.55;;;998.70;768.00;;;;;;6304465;22;20007;-69
2021/09/05 09:51:13;;;;;;;4.90;3.50;;;998.70;768.00;;;;;;6276381;22;20425;-67
2021/09/05 09:53:40;;;;;;;4.43;3.30;;;1024.50;716.80;;;;;;6305139;22;20006;-76
2021/09/05 09:56:09;;;;;;;5.35;3.53;;;1076.10;665.60;;;;;;6305351;22;20010;-67
2021/09/05 09:58:36;;;;;;;4.75;3.15;;;1127.00;614.40;;;;;;6304188;22;20460;-72
2021/09/05 10:01:03;;;;;;;3.65;3.35;;;1101.60;588.80;;;;;;6304798;22;20000;-67
2021/09/05 10:03:31;;;;;;;4.97;3.28;;;1127.30;563.20;;;;;;6304453;22;20003;-74
2021/09/05 10:05:58;;;;;;;5.47;3.20;;;1127.30;537.60;;;;;;6276735;22;20429;-68
2021/09/05 10:08:26;;;;;;;3.40;3.10;;;1126.70;563.20;;;;;;6304701;22;19999;-70
2021/09/05 10:10:57;;;;;;;5.00;2.95;;;1177.90;486.40;;;;;;6305301;22;20026;-69
2021/09/05 10:13:29;;;;;;;3.85;3.20;;;1203.60;460.80;;;;;;6304896;22;20015;-70
2021/09/05 10:15:55;;;;;;;3.95;3.50;;;1229.60;460.80;;;;;;6304537;22;20072;-68
2021/09/05 10:18:21;;;;;;;4.80;3.33;;;1254.80;486.40;;;;;;6305046;22;20009;-69
2021/09/05 10:20:48;;;;;;;4.93;3.22;;;1254.90;486.40;;;;;;6304978;22;20057;-69
2021/09/05 10:23:13;;;;;;;3.50;3.17;;;1280.80;486.40;;;;;;6307447;22;20015;-67
2021/09/05 10:25:39;;;;;;;4.07;3.10;;;1280.60;486.40;;;;;;6306284;22;20003;-69
2021/09/05 10:28:05;;;;;;;3.60;3.10;;;1255.20;486.40;;;;;;6307031;22;20014;-70
2021/09/05 10:30:31;;;;;;;3.92;3.10;;;1280.80;486.40;;;;;;6305947;22;19999;-67
2021/09/05 10:33:02;;;;;;;4.20;3.03;;;1305.90;486.40;;;;;;6307204;22;20314;-67
2021/09/05 10:35:38;;;;;;;4.75;3.20;;;1255.20;486.40;;;;;;6304922;22;20445;-69
2021/09/05 10:38:20;;;;;;;;;;;;;;;;;;;;;
2021/09/05 10:40:55;;;;;;;3.63;3.03;;;1228.80;460.80;;;;;;6305273;22;20038;-71
2021/09/05 10:43:23;;;;;;;6.28;3.67;;;1203.50;435.20;;;;;;6307214;22;20366;-69
2021/09/05 10:45:57;;;;;;;3.40;2.80;;;1228.90;460.80;;;;;;6306278;22;20325;-71
2021/09/05 10:48:37;;;;;;;4.80;2.80;;;1229.60;460.80;;;;;;6306868;22;19992;-70
2021/09/05 10:51:12;;;;;;;6.20;3.30;;;1178.40;409.60;;;;;;6306915;22;20011;-68
2021/09/05 10:54:02;;;;;;;6.80;3.00;;;1152.00;460.80;;;;;;6278576;22;20042;-68
2021/09/05 10:56:29;;;;;;;4.68;3.47;;;1076.10;486.40;;;;;;6305862;22;20367;-69
2021/09/05 10:58:58;;;;;;;3.55;3.03;;;1050.00;563.20;;;;;;6307019;22;19999;-69
2021/09/05 11:01:46;;;;;;;5.50;3.20;;;1024.10;588.80;;;;;;6305855;22;20003;-74
2021/09/05 11:04:15;;;;;;;40.72;20.60;;;998.40;640.00;;;;;;6305963;22;20003;-72
2021/09/05 11:07:02;;;;;;;10.65;5.00;;;972.90;665.60;;;;;;6306121;22;20011;-68
2021/09/05 11:09:27;;;;;;;4.78;3.33;;;922.40;691.20;;;;;;6306068;22;20010;-69
2021/09/05 11:12:25;;;;;;;9.05;3.60;;;896.80;716.80;;;;;;6307150;22;20011;-70
2021/09/05 11:14:51;;;;;;;5.40;3.33;;;871.20;742.40;;;;;;6306475;22;20429;-72
2021/09/05 11:17:21;;;;;;;5.50;3.47;;;870.40;793.60;;;;;;6307035;22;20002;-69
2021/09/05 11:19:46;;;;;;;8.15;3.90;;;845.40;819.20;;;;;;6277570;22;20429;-71
2021/09/05 11:22:23;;;;;;;5.85;3.83;;;845.10;844.80;;;;;;6307180;22;19999;-69
2021/09/05 11:25:07;;;;;;;6.70;4.13;;;844.80;870.40;;;;;;6305972;22;20325;-68
2021/09/05 11:27:34;;;;;;;5.47;4.20;;;819.50;947.20;;;;;;6277630;22;20010;-68
2021/09/05 11:30:05;;;;;;;6.40;5.03;;;819.20;947.20;;;;;;6306409;22;20038;-67
2021/09/05 11:32:31;;;;;;;6.85;4.60;;;794.10;1024.00;;;;;;6304852;22;20006;-67
2021/09/05 11:34:57;;;;;;;5.63;4.63;;;793.90;1049.60;;;;;;6277128;22;20023;-67
2021/09/05 11:37:31;;;;;;;7.50;5.07;;;793.60;1075.20;;;;;;6305922;22;20126;-69
2021/09/05 11:40:10;;;;;;;5.88;4.63;;;768.80;1075.20;;;;;;6306296;22;20078;-68
2021/09/05 11:42:37;;;;;;;9.80;6.60;;;793.70;1075.20;;;;;;6305628;22;20005;-69
2021/09/05 11:45:09;;;;;;;9.27;6.10;;;845.20;972.80;;;;;;6279297;22;20011;-70
2021/09/05 11:47:36;;;;;;;8.80;5.00;;;844.90;998.40;;;;;;6305828;22;19999;-69
2021/09/05 11:50:03;;;;;;;6.28;5.15;;;845.10;947.20;;;;;;6304932;22;20003;-67
2021/09/05 11:52:34;;;;;;;5.13;3.95;;;845.10;921.60;;;;;;6305261;22;19999;-69
2021/09/05 11:55:12;;;;;;;6.03;4.45;;;870.60;896.00;;;;;;6306197;22;20089;-66
2021/09/05 11:57:52;;;;;;;6.20;4.60;;;845.50;896.00;;;;;;6304995;22;20313;-68
2021/09/05 12:00:25;;;;;;;9.38;6.10;;;845.70;921.60;;;;;;6305725;22;19999;-68
2021/09/05 12:02:51;;;;;;;7.88;5.18;;;845.50;972.80;;;;;;6305593;22;20011;-68
2021/09/05 12:05:17;;;;;;;8.45;6.10;;;922.50;819.20;;;;;;6306108;22;20070;-66
2021/09/05 12:07:43;;;;;;;9.82;5.72;;;1024.30;716.80;;;;;;6305559;22;20592;-65
2021/09/05 12:10:10;;;;;;;6.45;4.57;;;1075.30;640.00;;;;;;6305841;22;20429;-67
2021/09/05 12:12:40;;;;;;;4.70;4.20;;;1126.70;588.80;;;;;;6305190;22;20364;-67
2021/09/05 12:15:14;;;;;;;4.32;3.58;;;1152.90;512.00;;;;;;6305454;22;20487;-68